Flight Track Log - Related Links

Times and Time Zones

All times are in EST time to prevent confusion due to time zone crossing. See the WJA1875 flight status page for this flight to view local times or setup timezone preferences in your user account.

Time Position Orientation Groundspeed Altitude Reporting Facility
EST Latitude Longitude Course Direction KTS MPH feet Rate Location/Type
Tue 04:41:37 AM 21.9833 -159.3167 53° Northeast 130 150 1,300  Level Honolulu Center
Tue 04:42:37 AM 22.0167 -159.2833 43° Northeast 200 230 3,100 2,132 Climbing Honolulu Center
Tue 04:43:38 AM 22.0667 -159.2333 43° Northeast 250 288 5,600 2,750 Climbing Honolulu Center
Tue 04:44:37 AM 22.1167 -159.1667 51° Northeast 280 322 8,600 2,622 Climbing Honolulu Center
Tue 04:45:37 AM 22.1667 -159.1000 51° Northeast 310 357 10,800 2,450 Climbing Honolulu Center
Tue 04:46:37 AM 22.2167 -159.0000 62° Northeast 350 403 13,500 2,380 Climbing Honolulu Center
Tue 04:47:00 AM 22.4693 -158.5945 53° Northeast  Level FlightAware Approximate
Tue 04:47:38 AM 22.2833 -158.9167 49° Northeast 380 437 15,600  Level Honolulu Center
Tue 04:48:38 AM 22.3500 -158.8167 54° Northeast 420 483 17,500 2,100 Climbing Honolulu Center
Tue 04:49:38 AM 22.4167 -158.7167 54° Northeast 450 518 19,800 2,250 Climbing Honolulu Center
Tue 04:50:38 AM 22.4833 -158.6167 54° Northeast 460 529 22,000 2,050 Climbing Honolulu Center
Tue 04:51:38 AM 22.5667 -158.5000 52° Northeast 460 529 23,900 1,700 Climbing Honolulu Center
Tue 04:52:38 AM 22.6500 -158.3833 52° Northeast 480 552 25,400 1,488 Climbing Honolulu Center
Tue 04:53:39 AM 22.7333 -158.2500 56° Northeast 490 564 26,900 1,339 Climbing Honolulu Center
Tue 04:54:39 AM 22.8167 -158.1333 52° Northeast 500 575 28,100 1,150 Climbing Honolulu Center
Tue 04:55:39 AM 22.9000 -158.0167 52° Northeast 510 587 29,200 1,100 Climbing Honolulu Center
Tue 04:56:39 AM 22.9833 -157.8833 56° Northeast 530 610 30,300 1,200 Climbing Honolulu Center
Tue 04:57:39 AM 23.0833 -157.7500 51° Northeast 530 610 31,600 1,150 Climbing Honolulu Center
Tue 04:58:39 AM 23.1667 -157.6167 56° Northeast 540 621 32,600 1,100 Climbing Honolulu Center
Tue 04:59:39 AM 23.2500 -157.4833 56° Northeast 550 633 33,800 1,190 Climbing Honolulu Center
Tue 05:00:40 AM 23.3500 -157.3500 51° Northeast 550 633 35,000 595 Climbing Honolulu Center
Tue 05:01:40 AM 23.4333 -157.2167 56° Northeast 550 633 35,000  Level Honolulu Center
Tue 05:02:40 AM 23.5167 -157.0833 56° Northeast 550 633 35,000  Level Honolulu Center
Tue 05:03:40 AM 23.6167 -156.9500 51° Northeast 550 633 35,000  Level Honolulu Center
Tue 05:04:40 AM 23.7000 -156.8000 59° Northeast 550 633 35,000  Level Honolulu Center
Tue 05:05:40 AM 23.8000 -156.6667 51° Northeast 550 633 35,000  Level Honolulu Center
Tue 05:06:40 AM 23.8833 -156.5333 56° Northeast 550 633 35,000  Level Honolulu Center
Tue 05:07:40 AM 23.9667 -156.4000 56° Northeast 540 621 35,000  Level Honolulu Center
Tue 05:19:26 AM 24.7167 -155.2667 44° Northeast 561 646 35,000 17 Level Oakland Oceanic (ODAPS)
Tue 06:05:54 AM 30.0500 -149.0833 47° Northeast 577 664 36,000 11 Climbing Oakland Oceanic (ODAPS)
Tue 06:52:51 AM 35.0000 -142.3500 51° Northeast 562 647 36,000 11 Level Oakland Oceanic (ODAPS)
Tue 07:39:22 AM 39.4167 -134.9667 37° Northeast 552 635 37,000 12 Climbing Oakland Oceanic (ODAPS)
Tue 08:19:35 AM 44.1000 -129.9833 23° Northeast 504 580 37,000  Level Oakland Oceanic (ODAPS)
Tue 08:43:19 AM 47.3219 -127.9219 51° Northeast 509 586 37,000  Level Seattle Center
Tue 08:44:00 AM 47.4135 -127.8578 25° Northeast 504 580 37,000  Level FlightAware Transoceanic
Tue 08:44:19 AM 47.4492 -127.8356 25° Northeast 506 582 37,000  Level Seattle Center
Tue 08:45:00 AM 47.5401 -127.7708 25° Northeast 504 580 37,000  Level FlightAware Transoceanic
Tue 08:45:20 AM 47.5756 -127.7492 25° Northeast 503 579 37,000  Level Seattle Center
Tue 08:46:00 AM 47.6667 -127.6833 50° Northeast 504 580 37,000  Level FlightAware Transoceanic
Tue 08:46:20 AM 47.6928 -127.6375 33° Northeast 510 587 37,000  Level Seattle Center
Tue 08:47:00 AM 47.7527 -127.5280 51° Northeast 504 580 37,000  Level FlightAware Transoceanic
Tue 08:47:20 AM 47.7869 -127.4717 50° Northeast 521 600 37,000  Level Seattle Center
Tue 08:48:00 AM 47.8385 -127.3721 51° Northeast 504 580 37,000  Level FlightAware Transoceanic
Tue 08:48:20 AM 47.8775 -127.3053 51° Northeast 522 601 37,000  Level Seattle Center
Tue 08:49:21 AM 47.9697 -127.1381 50° Northeast 522 601 37,000  Level Seattle Center
Tue 08:50:21 AM 48.0589 -126.9706 51° Northeast 519 597 37,000  Level Seattle Center
Tue 08:51:21 AM 48.1494 -126.8039 51° Northeast 518 596 37,000  Level Seattle Center
Tue 08:52:21 AM 48.2406 -126.6356 51° Northeast 518 596 37,000  Level Seattle Center
Tue 08:53:22 AM 48.3303 -126.4658 51° Northeast 520 598 37,000 -1,190 Level Seattle Center
Tue 08:54:22 AM 48.4200 -126.2947 52° Northeast 521 600 34,600 -2,600 Descending Seattle Center
Tue 08:55:22 AM 48.5031 -126.1153 55° Northeast 522 601 31,800 -2,476 Descending Seattle Center
Tue 08:56:28 AM 48.5667 -125.9167 64° Northeast 510 587 29,400 -2,238 Descending Vancouver Center
Tue 08:57:28 AM 48.6333 -125.7500 59° Northeast 490 564 27,100 -2,200 Descending Vancouver Center
Tue 08:58:28 AM 48.7000 -125.6000 56° Northeast 470 541 25,000 -2,100 Descending Vancouver Center
Tue 08:59:28 AM 48.8000 -125.4167 50° Northeast 460 529 22,900 -2,000 Descending Vancouver Center
Tue 09:00:28 AM 48.8500 -125.2667 63° Northeast 440 506 21,000 -1,950 Descending Vancouver Center
Tue 09:01:28 AM 48.9167 -125.1167 56° Northeast 430 495 19,000 -1,800 Descending Vancouver Center
Tue 09:02:28 AM 48.9833 -124.9667 56° Northeast 410 472 17,400 -1,900 Descending Vancouver Center
Tue 09:03:28 AM 49.0333 -124.8167 63° Northeast 410 472 15,200 -2,200 Descending Vancouver Center
Tue 09:04:28 AM 49.0833 -124.6667 63° Northeast 400 460 13,000 -2,050 Descending Vancouver Center
Tue 09:05:28 AM 49.1167 -124.5333 69° East 390 449 11,100 -1,450 Descending Vancouver Center
Tue 09:06:28 AM 49.1667 -124.3833 63° Northeast 360 414 10,100 -1,050 Descending Vancouver Center
Tue 09:07:28 AM 49.2000 -124.2667 66° East 320 368 9,000 -1,000 Descending Vancouver Center
Tue 09:08:28 AM 49.2333 -124.1500 66° East 290 334 8,100 -900 Descending Vancouver Center
Tue 09:09:28 AM 49.2500 -124.0333 78° East 280 322 7,200 -750 Descending Vancouver Center
Tue 09:10:28 AM 49.2500 -123.9333 90° East 270 311 6,600 -850 Descending Vancouver Center
Tue 09:11:28 AM 49.2333 -123.8167 102° East 270 311 5,500 -800 Descending Vancouver Center
Tue 09:12:28 AM 49.2167 -123.7167 104° East 250 288 5,000 -300 Descending Vancouver Center
Tue 09:13:28 AM 49.2167 -123.6167 90° East 230 265 4,900 -300 Descending Vancouver Center
Tue 09:14:28 AM 49.2000 -123.5167 104° East 210 242 4,400 -800 Descending Vancouver Center
Tue 09:15:28 AM 49.2000 -123.4333 90° East 200 230 3,300 -1,050 Descending Vancouver Center
Tue 09:16:28 AM 49.1833 -123.3667 111° Southeast 170 196 2,300 -850 Descending Vancouver Center
Tue 09:17:28 AM 49.1833 -123.3167 90° East 140 161 1,600 -750 Descending Vancouver Center
Tue 09:18:28 AM 49.1833 -123.2667 90° East 140 161 800 -750 Descending Vancouver Center
Tue 09:19:28 AM 49.1667 -123.2167 117° Southeast 140 161 100 -700 Descending Vancouver Center

Login

Don't have an account? Register now (free) for customized features, flight alerts, and more!